createdAt,value
2018-06-12T00:02:26.317Z,24.00
2018-06-12T00:04:56.034Z,24.10
2018-06-12T00:07:25.746Z,24.10
2018-06-12T00:09:55.557Z,24.00
2018-06-12T00:12:25.256Z,24.00
2018-06-12T00:14:54.966Z,24.10
2018-06-12T00:17:24.633Z,24.10
2018-06-12T00:19:54.322Z,23.80
2018-06-12T00:22:24.034Z,23.80
2018-06-12T00:24:53.863Z,23.90
2018-06-12T00:27:23.577Z,23.90
2018-06-12T00:29:53.337Z,23.80
2018-06-12T00:32:23.362Z,23.70
2018-06-12T00:34:53.017Z,23.70
2018-06-12T00:37:22.751Z,23.80
2018-06-12T00:39:52.383Z,23.80
2018-06-12T00:42:22.072Z,23.80
2018-06-12T00:44:51.828Z,23.80
2018-06-12T00:47:21.576Z,23.70
2018-06-12T00:49:51.333Z,23.60
2018-06-12T00:52:21.070Z,23.60
2018-06-12T00:54:50.720Z,23.60
2018-06-12T00:57:20.435Z,23.70
2018-06-12T00:59:50.120Z,23.60
2018-06-12T01:02:19.808Z,23.50
2018-06-12T01:04:49.528Z,23.50
2018-06-12T01:07:19.149Z,23.50
2018-06-12T01:09:48.888Z,23.50
2018-06-12T01:12:18.589Z,23.50
2018-06-12T01:14:48.254Z,23.60
2018-06-12T01:17:18.056Z,23.60
2018-06-12T01:19:47.733Z,23.40
2018-06-12T01:22:17.417Z,23.30
2018-06-12T01:24:47.153Z,23.30
2018-06-12T01:27:16.915Z,23.30
2018-06-12T01:29:46.639Z,23.20
2018-06-12T01:32:16.403Z,23.10
2018-06-12T01:34:46.063Z,23.10
2018-06-12T01:37:15.813Z,23.10
2018-06-12T01:39:45.498Z,23.10
2018-06-12T01:42:15.221Z,23.10
2018-06-12T01:44:44.845Z,23.10
2018-06-12T01:47:14.505Z,23.10
2018-06-12T01:49:44.211Z,23.10
2018-06-12T01:52:13.904Z,23.20
2018-06-12T01:54:43.568Z,23.10
2018-06-12T01:57:13.230Z,23.10
2018-06-12T01:59:42.903Z,23.00
2018-06-12T02:02:12.770Z,23.10
2018-06-12T02:04:42.476Z,23.00
2018-06-12T02:07:12.083Z,23.00
2018-06-12T02:09:41.781Z,23.00
2018-06-12T02:12:11.502Z,23.00
2018-06-12T02:14:41.240Z,22.90
2018-06-12T02:17:10.963Z,23.00
2018-06-12T02:19:40.689Z,22.80
2018-06-12T02:22:10.423Z,22.90
2018-06-12T02:24:40.077Z,22.80
2018-06-12T02:27:09.786Z,22.80
2018-06-12T02:29:39.457Z,22.80
2018-06-12T02:32:09.142Z,22.80
2018-06-12T02:34:38.765Z,22.80
2018-06-12T02:37:08.533Z,22.80
2018-06-12T02:39:38.234Z,22.80
2018-06-12T02:42:07.907Z,22.60
2018-06-12T02:44:37.698Z,22.70
2018-06-12T02:47:07.326Z,22.60
2018-06-12T02:49:37.032Z,22.70
2018-06-12T02:52:06.805Z,22.60
2018-06-12T02:54:36.556Z,22.70
2018-06-12T02:57:06.312Z,22.70
2018-06-12T02:59:35.994Z,22.70
2018-06-12T03:02:05.828Z,22.70
2018-06-12T03:04:35.656Z,22.90
2018-06-12T03:07:05.368Z,22.80
2018-06-12T03:09:38.006Z,22.90
2018-06-12T03:12:07.657Z,25.00
2018-06-12T03:14:37.366Z,22.90
2018-06-12T03:17:07.017Z,22.90
2018-06-12T03:19:36.654Z,22.80
2018-06-12T03:22:07.049Z,22.90
2018-06-12T03:24:37.436Z,22.90
2018-06-12T03:27:07.149Z,23.00
2018-06-12T03:29:37.324Z,22.90
2018-06-12T03:32:07.013Z,22.90
2018-06-12T03:34:36.806Z,23.00
2018-06-12T03:37:06.428Z,22.90
2018-06-12T03:39:36.122Z,22.80
2018-06-12T03:42:05.857Z,22.90
2018-06-12T03:44:35.498Z,22.90
2018-06-12T03:47:05.588Z,22.90
2018-06-12T03:49:35.280Z,22.90
2018-06-12T03:52:05.280Z,22.90
2018-06-12T03:54:34.925Z,23.00
2018-06-12T03:57:04.661Z,22.90
2018-06-12T03:59:34.365Z,22.90
2018-06-12T04:02:04.183Z,22.90
2018-06-12T04:04:33.868Z,23.10
2018-06-12T04:07:03.756Z,23.00
2018-06-12T04:09:33.573Z,23.00
2018-06-12T04:12:03.478Z,23.00
2018-06-12T04:14:33.174Z,22.90
2018-06-12T04:17:02.850Z,22.90
2018-06-12T04:19:32.521Z,22.90
2018-06-12T04:22:02.181Z,22.90
2018-06-12T04:24:31.832Z,23.00
2018-06-12T04:27:01.500Z,23.00
2018-06-12T04:29:31.250Z,22.80
2018-06-12T04:32:00.974Z,22.90
2018-06-12T04:34:30.714Z,22.80
2018-06-12T04:37:00.361Z,23.00
2018-06-12T04:39:29.972Z,23.00
2018-06-12T04:41:59.631Z,23.00
2018-06-12T04:44:29.354Z,23.00
2018-06-12T04:46:58.996Z,23.10
2018-06-12T04:49:28.678Z,23.10
2018-06-12T04:51:58.470Z,23.10
2018-06-12T04:54:28.241Z,23.10
2018-06-12T04:56:57.990Z,23.10
2018-06-12T04:59:27.713Z,23.10
2018-06-12T05:01:57.915Z,23.20
2018-06-12T05:04:27.658Z,23.30
2018-06-12T05:06:57.344Z,23.20
2018-06-12T05:09:27.018Z,23.30
2018-06-12T05:11:56.800Z,23.40
2018-06-12T05:14:26.490Z,23.50
2018-06-12T05:16:56.134Z,23.60
2018-06-12T05:19:25.779Z,23.60
2018-06-12T05:21:55.429Z,23.60
2018-06-12T05:24:25.135Z,23.60
2018-06-12T05:26:54.879Z,23.60
2018-06-12T05:29:24.649Z,23.50
2018-06-12T05:31:54.282Z,23.50
2018-06-12T05:34:24.026Z,23.50
2018-06-12T05:36:53.745Z,23.50
2018-06-12T05:39:23.448Z,23.50
2018-06-12T05:41:53.171Z,23.70
2018-06-12T05:44:23.657Z,23.90
2018-06-12T05:46:53.384Z,23.90
2018-06-12T05:49:23.078Z,23.90
2018-06-12T05:51:52.821Z,23.80
2018-06-12T05:54:22.631Z,23.80
2018-06-12T05:56:52.393Z,23.80
2018-06-12T05:59:22.020Z,23.80
2018-06-12T06:01:51.734Z,23.70
2018-06-12T06:04:21.532Z,23.80
2018-06-12T06:06:51.234Z,23.80
2018-06-12T06:09:20.948Z,23.80
2018-06-12T06:11:50.610Z,23.90
2018-06-12T06:14:20.367Z,24.00
2018-06-12T06:16:50.076Z,23.90
2018-06-12T06:19:19.738Z,24.10
2018-06-12T06:21:49.446Z,24.20
2018-06-12T06:24:19.218Z,24.10
2018-06-12T06:26:48.964Z,24.20
2018-06-12T06:29:18.655Z,24.30
2018-06-12T06:31:48.385Z,24.30
2018-06-12T06:34:18.189Z,24.50
2018-06-12T06:36:47.916Z,24.40
2018-06-12T06:39:17.607Z,24.50
2018-06-12T06:41:47.365Z,24.60
2018-06-12T06:44:17.093Z,24.60
2018-06-12T06:46:46.740Z,24.60
2018-06-12T06:49:16.354Z,24.50
2018-06-12T06:51:46.042Z,24.60
2018-06-12T06:54:15.693Z,24.60
2018-06-12T06:56:45.378Z,24.60
2018-06-12T06:59:15.043Z,24.60
2018-06-12T07:01:44.826Z,24.70
2018-06-12T07:04:14.457Z,24.70
2018-06-12T07:06:44.172Z,25.00
2018-06-12T07:09:13.906Z,25.20
2018-06-12T07:11:43.575Z,25.20
2018-06-12T07:14:13.304Z,25.10
2018-06-12T07:16:43.037Z,25.30
2018-06-12T07:19:12.735Z,25.40
2018-06-12T07:21:42.499Z,25.40
2018-06-12T07:24:12.369Z,25.50
2018-06-12T07:26:42.269Z,25.60
2018-06-12T07:29:12.179Z,25.60
2018-06-12T07:31:42.008Z,25.70
2018-06-12T07:34:11.810Z,25.80
2018-06-12T07:36:41.601Z,25.80
2018-06-12T07:39:11.399Z,26.10
2018-06-12T07:41:41.208Z,26.10
2018-06-12T07:44:11.071Z,26.20
2018-06-12T07:46:40.827Z,26.20
2018-06-12T07:49:10.624Z,26.20
2018-06-12T07:51:40.509Z,26.10
2018-06-12T07:54:10.400Z,26.00
2018-06-12T07:56:40.285Z,26.00
2018-06-12T07:59:10.081Z,26.00
2018-06-12T08:01:39.931Z,26.00
2018-06-12T08:04:09.763Z,26.20
2018-06-12T08:06:39.589Z,26.10
2018-06-12T08:09:09.564Z,26.20
2018-06-12T08:11:39.357Z,26.40
2018-06-12T08:14:09.154Z,26.40
2018-06-12T08:16:39.004Z,26.50
2018-06-12T08:19:08.808Z,26.60
2018-06-12T08:21:38.664Z,26.50
2018-06-12T08:24:08.492Z,26.60
2018-06-12T08:30:10.731Z,26.70
2018-06-12T08:32:40.510Z,26.90
2018-06-12T08:35:10.591Z,26.80
2018-06-12T08:37:40.429Z,27.00
2018-06-12T08:40:10.424Z,27.00
2018-06-12T08:42:40.381Z,26.90
2018-06-12T08:45:10.240Z,26.70
2018-06-12T08:47:40.037Z,26.70
2018-06-12T08:50:09.834Z,26.50
2018-06-12T08:52:39.704Z,26.50
2018-06-12T08:55:09.624Z,26.60
2018-06-12T08:57:39.429Z,26.60
2018-06-12T09:00:09.236Z,26.70
2018-06-12T09:02:39.157Z,26.70
2018-06-12T09:05:09.004Z,26.70
2018-06-12T09:07:38.954Z,26.70
2018-06-12T09:10:08.765Z,26.80
2018-06-12T09:12:38.584Z,26.90
2018-06-12T09:15:08.553Z,26.90
2018-06-12T09:17:38.317Z,27.20
2018-06-12T09:20:08.121Z,27.40
2018-06-12T09:22:37.936Z,27.50
2018-06-12T09:25:07.744Z,27.40
2018-06-12T09:27:43.498Z,27.30
2018-06-12T09:30:13.301Z,27.40
2018-06-12T09:32:43.123Z,27.50
2018-06-12T09:35:12.989Z,27.80
2018-06-12T09:37:42.804Z,27.90
2018-06-12T09:40:12.687Z,28.10
2018-06-12T09:42:42.528Z,28.00
2018-06-12T09:45:12.349Z,27.80
2018-06-12T09:47:42.181Z,27.80
2018-06-12T09:50:12.013Z,27.60
2018-06-12T09:52:41.882Z,27.80
2018-06-12T09:55:11.690Z,28.20
2018-06-12T09:57:41.564Z,28.20
2018-06-12T10:00:11.355Z,28.50
2018-06-12T10:02:41.195Z,28.50
2018-06-12T10:05:11.090Z,28.70
2018-06-12T10:07:41.011Z,28.70
2018-06-12T10:10:10.822Z,28.60
2018-06-12T10:12:40.643Z,28.60
2018-06-12T10:15:10.623Z,29.10
2018-06-12T10:17:40.414Z,29.50
2018-06-12T10:22:39.495Z,29.30
2018-06-12T10:25:09.292Z,29.20
2018-06-12T10:27:39.214Z,29.20
2018-06-12T10:30:09.064Z,28.60
2018-06-12T10:32:38.906Z,28.50
2018-06-12T10:35:08.763Z,28.60
2018-06-12T10:37:38.580Z,28.80
2018-06-12T10:40:08.365Z,28.70
2018-06-12T10:42:38.143Z,28.60
2018-06-12T10:45:08.008Z,28.20
2018-06-12T10:47:37.805Z,27.80
2018-06-12T10:50:08.001Z,27.70
2018-06-12T10:52:37.849Z,27.40
2018-06-12T10:55:07.788Z,27.20
2018-06-12T10:57:37.700Z,27.10
2018-06-12T11:00:07.575Z,27.00
2018-06-12T11:02:37.439Z,26.90
2018-06-12T11:05:07.196Z,26.80
2018-06-12T11:07:37.040Z,26.70
2018-06-12T11:10:06.812Z,26.70
2018-06-12T11:12:38.968Z,26.80
2018-06-12T11:15:09.476Z,26.70
2018-06-12T11:17:39.300Z,26.50
2018-06-12T11:20:09.824Z,26.50
2018-06-12T11:22:39.598Z,25.50
2018-06-12T11:25:09.460Z,24.80
2018-06-12T11:27:40.591Z,24.20
2018-06-12T11:30:10.375Z,23.70
2018-06-12T11:32:40.524Z,23.50
2018-06-12T11:35:10.281Z,23.20
2018-06-12T11:37:40.146Z,22.90
2018-06-12T11:40:11.218Z,22.70
2018-06-12T11:42:44.182Z,22.80
2018-06-12T11:45:14.510Z,22.70
2018-06-12T11:47:44.317Z,22.80
2018-06-12T11:50:14.177Z,22.60
2018-06-12T11:52:44.198Z,22.20
2018-06-12T11:55:14.850Z,22.10
2018-06-12T11:57:45.749Z,22.10
2018-06-12T12:00:16.529Z,21.60
2018-06-12T12:02:46.340Z,21.60
2018-06-12T12:05:17.916Z,21.50
2018-06-12T12:07:49.128Z,21.50
2018-06-12T12:10:18.924Z,21.40
2018-06-12T12:12:48.762Z,21.40
2018-06-12T12:15:18.512Z,21.20
2018-06-12T12:17:48.313Z,21.20
2018-06-12T12:20:18.174Z,20.50
2018-06-12T12:22:47.958Z,20.40
2018-06-12T12:25:17.729Z,20.80
2018-06-12T12:27:47.522Z,20.90
2018-06-12T12:30:17.376Z,21.00
2018-06-12T12:32:47.238Z,20.90
2018-06-12T12:35:17.011Z,20.90
2018-06-12T12:37:46.863Z,21.10
2018-06-12T12:40:16.642Z,21.30
2018-06-12T12:42:46.435Z,21.50
2018-06-12T12:45:16.296Z,21.60
2018-06-12T12:47:46.051Z,21.90
2018-06-12T12:50:15.886Z,22.20
2018-06-12T12:52:45.715Z,22.50
2018-06-12T12:55:15.486Z,23.10
2018-06-12T12:57:45.293Z,23.20
2018-06-12T13:00:15.298Z,23.60
2018-06-12T13:02:45.061Z,23.90
2018-06-12T13:05:14.795Z,24.40
2018-06-12T13:07:44.472Z,25.10
2018-06-12T13:10:16.411Z,25.50
2018-06-12T13:12:46.118Z,25.90
2018-06-12T13:15:15.857Z,26.10
2018-06-12T13:17:45.586Z,25.90
2018-06-12T13:20:16.556Z,26.00
2018-06-12T13:25:15.264Z,26.40
2018-06-12T13:27:44.974Z,26.90
2018-06-12T13:30:14.711Z,27.30
2018-06-12T13:32:44.386Z,26.70
2018-06-12T13:35:14.073Z,26.60
2018-06-12T13:37:43.807Z,27.60
2018-06-12T13:40:13.489Z,27.40
2018-06-12T13:42:43.120Z,28.30
2018-06-12T13:45:12.848Z,28.60
2018-06-12T13:47:42.558Z,28.80
2018-06-12T13:50:12.595Z,29.20
2018-06-12T13:52:42.306Z,29.70
2018-06-12T13:55:12.024Z,29.20
2018-06-12T13:57:41.900Z,29.40
2018-06-12T14:00:11.730Z,29.60
2018-06-12T14:02:41.637Z,29.80
2018-06-12T14:05:11.391Z,30.10
2018-06-12T14:07:41.101Z,30.00
2018-06-12T14:10:10.790Z,30.00
2018-06-12T14:12:40.450Z,30.20
2018-06-12T14:15:11.245Z,30.20
2018-06-12T14:17:40.949Z,29.90
2018-06-12T14:20:14.894Z,30.30
2018-06-12T14:22:44.564Z,30.60
2018-06-12T14:25:14.235Z,30.30
2018-06-12T14:27:43.872Z,30.00
2018-06-12T14:30:15.562Z,29.70
2018-06-12T14:32:45.362Z,29.20
2018-06-12T14:35:15.133Z,28.60
2018-06-12T14:37:45.140Z,28.50
2018-06-12T14:42:45.132Z,28.50
2018-06-12T14:45:14.825Z,28.20
2018-06-12T14:47:44.532Z,27.50
2018-06-12T14:50:14.218Z,26.80
2018-06-12T14:52:43.994Z,26.60
2018-06-12T14:55:13.852Z,26.40
2018-06-12T14:57:43.552Z,26.30
2018-06-12T15:00:13.297Z,26.20
2018-06-12T15:02:42.971Z,26.30
2018-06-12T15:05:12.721Z,26.00
2018-06-12T15:07:42.432Z,26.00
2018-06-12T15:10:56.324Z,25.90
2018-06-12T15:13:26.165Z,25.90
2018-06-12T15:15:56.024Z,25.90
2018-06-12T15:18:25.771Z,25.70
2018-06-12T15:23:24.617Z,25.90
2018-06-12T15:25:54.302Z,25.80
2018-06-12T15:28:24.032Z,25.70
2018-06-12T15:30:54.779Z,25.60
2018-06-12T15:33:24.537Z,25.60
2018-06-12T15:38:23.412Z,25.50
2018-06-12T15:40:53.125Z,25.50
2018-06-12T15:43:23.042Z,25.70
2018-06-12T15:45:52.708Z,25.50
2018-06-12T15:48:26.232Z,25.20
2018-06-12T15:50:56.012Z,25.10
2018-06-12T15:53:26.962Z,25.00
2018-06-12T15:55:58.595Z,25.10
2018-06-12T15:58:28.502Z,25.00
2018-06-12T16:00:58.365Z,24.90
2018-06-12T16:03:28.124Z,24.90
2018-06-12T16:05:57.911Z,24.40
2018-06-12T16:08:30.424Z,24.00
2018-06-12T16:11:01.487Z,23.60
2018-06-12T16:13:31.536Z,23.50
2018-06-12T16:16:05.434Z,23.60
2018-06-12T16:18:35.160Z,23.50
2018-06-12T16:21:04.957Z,23.50
2018-06-12T16:23:34.706Z,23.70
2018-06-12T16:26:04.630Z,23.90
2018-06-12T16:28:34.345Z,23.90
2018-06-12T16:31:04.028Z,24.00
2018-06-12T16:33:33.751Z,24.10
2018-06-12T16:36:03.547Z,24.10
2018-06-12T16:38:33.211Z,24.10
2018-06-12T16:41:02.944Z,24.20
2018-06-12T16:43:32.694Z,24.20
2018-06-12T16:46:02.551Z,24.40
2018-06-12T16:48:32.315Z,24.50
2018-06-12T16:51:02.033Z,24.60
2018-06-12T16:53:31.986Z,24.60
2018-06-12T16:56:01.788Z,24.60
2018-06-12T16:58:31.433Z,24.50
2018-06-12T17:01:01.151Z,24.60
2018-06-12T17:03:30.831Z,24.80
2018-06-12T17:06:00.584Z,24.90
2018-06-12T17:08:30.270Z,25.30
2018-06-12T17:10:59.985Z,25.40
2018-06-12T17:13:29.878Z,25.50
2018-06-12T17:15:59.551Z,25.30
2018-06-12T17:18:29.304Z,25.30
2018-06-12T17:20:59.068Z,25.40
2018-06-12T17:23:28.858Z,25.70
2018-06-12T17:25:58.783Z,25.70
2018-06-12T17:28:28.680Z,25.70
2018-06-12T17:30:58.424Z,25.20
2018-06-12T17:33:28.269Z,25.30
2018-06-12T17:35:58.185Z,25.20
2018-06-12T17:38:28.065Z,24.90
2018-06-12T17:40:57.998Z,24.60
2018-06-12T17:43:27.720Z,24.70
2018-06-12T17:45:57.610Z,24.30
2018-06-12T17:48:27.407Z,24.50
2018-06-12T17:50:57.573Z,24.50
2018-06-12T17:53:27.810Z,24.40
2018-06-12T17:55:57.769Z,24.50
2018-06-12T17:58:27.879Z,24.30
2018-06-12T18:00:57.953Z,24.40
2018-06-12T18:03:28.349Z,24.40
2018-06-12T18:05:58.407Z,24.10
2018-06-12T18:08:28.868Z,23.80
2018-06-12T18:10:58.982Z,23.50
2018-06-12T18:13:29.338Z,23.50
2018-06-12T18:16:00.077Z,23.80
2018-06-12T18:18:30.537Z,23.40
2018-06-12T18:21:00.929Z,23.20
2018-06-12T18:23:31.514Z,23.30
2018-06-12T18:26:02.255Z,23.30
2018-06-12T18:28:32.860Z,23.30
2018-06-12T18:31:03.994Z,23.30
2018-06-12T18:33:34.534Z,23.30
2018-06-12T18:36:05.134Z,23.20
2018-06-12T18:38:35.610Z,23.30
2018-06-12T18:41:06.167Z,23.40
2018-06-12T18:43:36.733Z,23.60
2018-06-12T18:46:07.217Z,23.70
2018-06-12T18:48:37.658Z,23.80
2018-06-12T18:51:08.157Z,23.80
2018-06-12T18:53:38.687Z,23.80
2018-06-12T18:56:09.167Z,23.70
2018-06-12T18:58:39.619Z,23.70
2018-06-12T19:01:10.140Z,23.70
2018-06-12T19:03:41.774Z,23.80
2018-06-12T19:06:12.246Z,23.80
2018-06-12T19:08:42.730Z,23.70
2018-06-12T19:11:13.278Z,23.30
2018-06-12T19:13:44.955Z,23.50
2018-06-12T19:16:15.544Z,23.70
2018-06-12T19:18:46.220Z,23.70
2018-06-12T19:21:16.701Z,23.60
2018-06-12T19:23:47.340Z,23.50
2018-06-12T19:26:18.075Z,23.50
2018-06-12T19:28:48.654Z,23.30
2018-06-12T19:31:19.435Z,23.40
2018-06-12T19:33:49.891Z,23.20
2018-06-12T19:36:20.493Z,23.30
2018-06-12T19:38:51.069Z,23.50
2018-06-12T19:41:21.733Z,23.40
2018-06-12T19:43:52.206Z,23.30
2018-06-12T19:46:22.802Z,23.10
2018-06-12T19:48:53.516Z,23.00
2018-06-12T19:51:24.238Z,23.00
2018-06-12T19:53:54.851Z,22.80
2018-06-12T19:56:27.763Z,22.60
2018-06-12T19:58:58.429Z,22.10
2018-06-12T20:01:29.234Z,22.20
2018-06-12T20:03:59.696Z,22.40
2018-06-12T20:06:30.156Z,22.40
2018-06-12T20:09:01.484Z,22.30
2018-06-12T20:11:32.132Z,22.30
2018-06-12T20:14:03.616Z,22.10
2018-06-12T20:16:34.219Z,22.00
2018-06-12T20:19:05.556Z,22.20
2018-06-12T20:21:36.147Z,22.30
2018-06-12T20:24:06.659Z,22.30
2018-06-12T20:26:37.274Z,22.20
2018-06-12T20:29:07.803Z,22.10
2018-06-12T20:31:38.294Z,22.20
2018-06-12T20:34:08.976Z,22.00
2018-06-12T20:36:39.913Z,22.00
2018-06-12T20:39:10.625Z,22.10
2018-06-12T20:41:41.064Z,22.00
2018-06-12T20:44:11.370Z,21.90
2018-06-12T20:46:41.697Z,21.90
2018-06-12T20:49:12.180Z,21.90
2018-06-12T20:51:42.523Z,21.70
2018-06-12T20:54:12.918Z,21.80
2018-06-12T20:56:43.226Z,21.80
2018-06-12T20:59:13.313Z,21.80
2018-06-12T21:01:43.368Z,21.80
2018-06-12T21:04:13.331Z,21.60
2018-06-12T21:06:43.206Z,21.70
2018-06-12T21:09:12.962Z,21.70
2018-06-12T21:11:42.792Z,21.80
2018-06-12T21:14:12.498Z,21.80
2018-06-12T21:16:42.292Z,21.60
2018-06-12T21:19:12.071Z,21.60
2018-06-12T21:21:41.816Z,21.70
2018-06-12T21:24:12.146Z,21.70
2018-06-12T21:26:42.229Z,21.60
2018-06-12T21:29:12.178Z,21.60
2018-06-12T21:31:41.999Z,21.50
2018-06-12T21:34:11.726Z,21.60
2018-06-12T21:39:10.419Z,21.40
2018-06-12T21:41:40.075Z,21.20
2018-06-12T21:44:09.722Z,21.10
2018-06-12T21:46:39.372Z,21.40
2018-06-12T21:49:09.029Z,21.40
2018-06-12T21:51:38.746Z,21.30
2018-06-12T21:54:08.454Z,21.20
2018-06-12T21:56:38.148Z,21.30
2018-06-12T21:59:07.844Z,21.30
2018-06-12T22:01:37.509Z,21.30
2018-06-12T22:04:07.197Z,21.20
2018-06-12T22:06:36.909Z,21.30
2018-06-12T22:09:07.644Z,21.40
2018-06-12T22:11:37.518Z,21.20
2018-06-12T22:14:07.280Z,21.20
2018-06-12T22:16:36.946Z,21.30
2018-06-12T22:19:06.714Z,21.10
2018-06-12T22:21:36.418Z,21.10
2018-06-12T22:24:06.143Z,21.10
2018-06-12T22:26:35.820Z,20.90
2018-06-12T22:29:05.544Z,21.10
2018-06-12T22:31:35.275Z,21.00
2018-06-12T22:34:05.078Z,21.10
2018-06-12T22:36:34.766Z,21.00
2018-06-12T22:39:05.176Z,21.10
2018-06-12T22:41:34.832Z,21.00
2018-06-12T22:44:04.589Z,21.30
2018-06-12T22:46:34.293Z,21.20
2018-06-12T22:49:03.984Z,21.10
2018-06-12T22:51:33.694Z,21.10
2018-06-12T22:54:03.507Z,21.10
2018-06-12T22:56:33.155Z,21.10
2018-06-12T22:59:02.834Z,21.20
2018-06-12T23:01:32.514Z,21.20
2018-06-12T23:04:02.351Z,21.20
2018-06-12T23:06:32.011Z,21.10
2018-06-12T23:09:01.648Z,21.20
2018-06-12T23:11:31.276Z,21.20
2018-06-12T23:14:01.101Z,21.30
2018-06-12T23:16:30.836Z,21.20
2018-06-12T23:19:00.564Z,21.00
2018-06-12T23:21:43.873Z,20.90
2018-06-12T23:24:13.678Z,20.80
2018-06-12T23:26:43.508Z,20.80
2018-06-12T23:29:13.146Z,20.90
2018-06-12T23:31:42.888Z,20.70
2018-06-12T23:34:12.657Z,20.50
2018-06-12T23:36:42.326Z,20.50
2018-06-12T23:39:12.162Z,20.60
2018-06-12T23:41:41.826Z,20.60
2018-06-12T23:44:12.205Z,20.70
2018-06-12T23:46:41.904Z,20.70
2018-06-12T23:49:11.581Z,20.80
2018-06-12T23:51:41.242Z,20.60
2018-06-12T23:54:10.844Z,20.70
2018-06-12T23:56:40.600Z,20.60
2018-06-12T23:59:10.247Z,20.50
